Terminal Aerodrome Forecast
Issued by NWS Wilmington, OH

Current Version | Previous Version | Graphics & Text | Print | Product List | Glossary On
Versions: 1 2 3 4 5 6 7 8 9 10 11 12 13 14 15 16 17 18 19 20 21 22 23 24 25 26 27
522
FTUS41 KILN 192337
TAFCVG
TAF
KCVG 192337Z 2000/2106 11007KT P6SM -RA OVC050
     FM200300 12006KT 4SM -RA BR OVC025
      TEMPO 2004/2008 2SM RA BR OVC015
     FM201000 15006KT 3SM BR VCSH OVC009
     FM201300 18006KT 4SM BR OVC005
     FM201600 21007KT P6SM BKN008
     FM202100 18004KT P6SM BKN022=

USA.gov is the U.S. government's official web portal to all federal, state and local government web resources and services.